メインページ
METAR-TAF:

METAR-TAF

空港 :

成都双流国際空港

成都, 中華人民共和国

緯度: 30-40N, 経度: 104-01E, 海抜: 508m

現時点の気象観測

当レポートは1時間4分前の03:00(UTC)に作成
変向風 6kt
気温 19°C
湿度 88%
気圧 1021 hPa
視程10km以上
高度700ftの雲はほとんどない
高度4000ftの雲は散在している

METAR: ZUUU 220300Z VRB03MPS 9999 FEW007 SCT040 19/17 Q1021 NOSIG

時間: 12:04 (04:04 UTC)

予報

当レポートは7時間58分前の20:06(UTC)に作成
予報は22日の 00時(UTC)から 22日の 24時(UTC)まで有効
北/北東の風 8kt
視程: 3500m
高度4000ftの雲は散在している

TAF: ZUUU 212006Z 2200/2224 02004MPS 3500 BR SCT040 TX25/2207Z TN15/2223Z

4,000以上の空港の気象観測と天気予報(METAR報とTAF報)

利用可能な観測所は地図上に黄色い丸と赤い丸で示す。

丸の上にカーソルを重ねると観測所名を参照できる。

次にクリックすると気象観測と天気予報を参照できる。

マップの切り替え:黒色「×」印の緑ボタンをクリックして拡大、「-」印の緑ボタンをクリックして縮小、緑色の三角印をクリックして隣りの地図に切り替え


METAR-TAF: